CheckWX is a tool to help pilots better visualize weather data.  It is not intended as a substitute for an official pre-flight weather briefing.

11:06:15 UTC

KSTC METAR
St Cloud Regional Airport
St Cloud, Minnesota, USA
Current

13 mins ago

KSTC 241053Z AUTO 10006KT 10SM SCT028 BKN037 OVC070 10/08 A2999 RMK AO2 RAB25E34 SLP167 P0000 T01000083
Observed
May-24 @ 10:53 UTC
Wind
  • 100° at 6 KTS
Visibility
10 SM
Flight Rules
VFR
Cloud Levels
  • Scattered at 2,800' AGL
  • Broken at 3,700' AGL
  • Overcast at 7,000' AGL
Temperature
10°C / 50°F
Dewpoint
C / 46°F
Humidity
88%
Altimeter
29.99" Hg
Pressure
1015.62 hPa
Current Rain
0.01"
Previous

1 hour ago

KSTC 240953Z AUTO VRB04KT 10SM BKN100 10/08 A3002 RMK AO2 SLP176 T01000078
Observed
May-24 @ 09:53 UTC
Wind
  • Variable at 4 KTS
Visibility
10 SM
Flight Rules
VFR
Cloud Levels
  • Broken at 10,000' AGL
Temperature
10°C / 50°F
Dewpoint
C / 46°F
Humidity
88%
Altimeter
30.02" Hg
Pressure
1016.62 hPa
Previous

2 hours ago

KSTC 240853Z AUTO 12003KT 10SM SCT042 10/08 A3007 RMK AO2 SLP193 T01000078 53001
Observed
May-24 @ 08:53 UTC
Wind
  • 120° at 3 KTS
Visibility
10 SM
Flight Rules
VFR
Cloud Levels
  • Scattered at 4,200' AGL
Temperature
10°C / 50°F
Dewpoint
C / 46°F
Humidity
88%
Altimeter
30.07" Hg
Pressure
1018.32 hPa